sensor_id;sensor_type;location;lat;lon;timestamp;P1;durP1;ratioP1;P2;durP2;ratioP2
27666;SDS011;15074;50.940;5.282;2023-07-28T00:00:20;1.33;;;1.10;;
27666;SDS011;15074;50.940;5.282;2023-07-28T00:02:46;2.08;;;1.20;;
27666;SDS011;15074;50.940;5.282;2023-07-28T00:05:11;1.52;;;1.00;;
27666;SDS011;15074;50.940;5.282;2023-07-28T00:07:37;1.25;;;0.93;;
27666;SDS011;15074;50.940;5.282;2023-07-28T00:10:03;2.70;;;1.20;;
27666;SDS011;15074;50.940;5.282;2023-07-28T00:12:28;1.13;;;1.00;;
27666;SDS011;15074;50.940;5.282;2023-07-28T00:14:54;1.30;;;1.10;;
27666;SDS011;15074;50.940;5.282;2023-07-28T00:17:20;1.80;;;1.17;;
27666;SDS011;15074;50.940;5.282;2023-07-28T00:19:45;2.00;;;1.02;;
27666;SDS011;15074;50.940;5.282;2023-07-28T00:22:11;1.33;;;1.23;;
27666;SDS011;15074;50.940;5.282;2023-07-28T00:24:37;2.10;;;1.20;;
27666;SDS011;15074;50.940;5.282;2023-07-28T00:27:03;1.98;;;1.48;;
27666;SDS011;15074;50.940;5.282;2023-07-28T00:29:29;1.75;;;1.33;;
27666;SDS011;15074;50.940;5.282;2023-07-28T00:31:55;1.63;;;1.20;;
27666;SDS011;15074;50.940;5.282;2023-07-28T00:34:20;3.35;;;1.90;;
27666;SDS011;15074;50.940;5.282;2023-07-28T00:36:46;1.60;;;1.50;;
27666;SDS011;15074;50.940;5.282;2023-07-28T00:39:11;2.15;;;1.50;;
27666;SDS011;15074;50.940;5.282;2023-07-28T00:41:37;2.58;;;1.55;;
27666;SDS011;15074;50.940;5.282;2023-07-28T00:44:03;1.98;;;1.48;;
27666;SDS011;15074;50.940;5.282;2023-07-28T00:46:28;10.75;;;2.22;;
27666;SDS011;15074;50.940;5.282;2023-07-28T00:48:54;2.95;;;1.80;;
27666;SDS011;15074;50.940;5.282;2023-07-28T00:51:20;2.40;;;1.75;;
27666;SDS011;15074;50.940;5.282;2023-07-28T00:53:46;3.55;;;1.80;;
27666;SDS011;15074;50.940;5.282;2023-07-28T00:56:12;2.63;;;1.60;;
27666;SDS011;15074;50.940;5.282;2023-07-28T00:58:38;1.55;;;1.33;;
27666;SDS011;15074;50.940;5.282;2023-07-28T01:01:04;3.08;;;1.75;;
27666;SDS011;15074;50.940;5.282;2023-07-28T01:03:30;2.75;;;1.95;;
27666;SDS011;15074;50.940;5.282;2023-07-28T01:06:18;3.22;;;1.90;;
27666;SDS011;15074;50.940;5.282;2023-07-28T01:12:01;2.20;;;2.00;;
27666;SDS011;15074;50.940;5.282;2023-07-28T01:14:33;4.07;;;2.45;;
27666;SDS011;15074;50.940;5.282;2023-07-28T01:16:59;3.42;;;1.92;;
27666;SDS011;15074;50.940;5.282;2023-07-28T01:19:25;2.92;;;1.95;;
27666;SDS011;15074;50.940;5.282;2023-07-28T01:21:57;2.72;;;2.30;;
27666;SDS011;15074;50.940;5.282;2023-07-28T01:24:48;3.25;;;2.30;;
27666;SDS011;15074;50.940;5.282;2023-07-28T01:27:20;2.92;;;2.00;;
27666;SDS011;15074;50.940;5.282;2023-07-28T01:29:46;3.22;;;2.20;;
27666;SDS011;15074;50.940;5.282;2023-07-28T01:32:13;2.75;;;2.28;;
27666;SDS011;15074;50.940;5.282;2023-07-28T01:34:39;3.22;;;2.28;;
27666;SDS011;15074;50.940;5.282;2023-07-28T01:37:05;2.58;;;2.13;;
27666;SDS011;15074;50.940;5.282;2023-07-28T01:39:31;4.45;;;2.00;;
27666;SDS011;15074;50.940;5.282;2023-07-28T01:41:56;3.20;;;2.35;;
27666;SDS011;15074;50.940;5.282;2023-07-28T01:44:22;3.20;;;2.53;;
27666;SDS011;15074;50.940;5.282;2023-07-28T01:46:47;4.03;;;1.80;;
27666;SDS011;15074;50.940;5.282;2023-07-28T01:49:13;2.67;;;1.60;;
27666;SDS011;15074;50.940;5.282;2023-07-28T01:51:39;2.08;;;1.63;;
27666;SDS011;15074;50.940;5.282;2023-07-28T01:54:04;2.72;;;1.63;;
27666;SDS011;15074;50.940;5.282;2023-07-28T01:56:30;1.77;;;1.50;;
27666;SDS011;15074;50.940;5.282;2023-07-28T01:58:55;2.10;;;1.55;;
27666;SDS011;15074;50.940;5.282;2023-07-28T02:01:21;1.92;;;1.52;;
27666;SDS011;15074;50.940;5.282;2023-07-28T02:03:47;2.40;;;1.60;;
27666;SDS011;15074;50.940;5.282;2023-07-28T02:06:12;5.22;;;1.65;;
27666;SDS011;15074;50.940;5.282;2023-07-28T02:08:38;2.55;;;1.58;;
27666;SDS011;15074;50.940;5.282;2023-07-28T02:11:03;2.78;;;2.00;;
27666;SDS011;15074;50.940;5.282;2023-07-28T02:13:29;2.22;;;1.60;;
27666;SDS011;15074;50.940;5.282;2023-07-28T02:15:55;2.22;;;1.73;;
27666;SDS011;15074;50.940;5.282;2023-07-28T02:18:20;2.53;;;1.92;;
27666;SDS011;15074;50.940;5.282;2023-07-28T02:20:49;2.13;;;1.85;;
27666;SDS011;15074;50.940;5.282;2023-07-28T02:23:15;3.30;;;2.28;;
27666;SDS011;15074;50.940;5.282;2023-07-28T02:25:41;3.65;;;2.30;;
27666;SDS011;15074;50.940;5.282;2023-07-28T02:28:08;2.88;;;2.20;;
27666;SDS011;15074;50.940;5.282;2023-07-28T02:30:35;2.28;;;1.90;;
27666;SDS011;15074;50.940;5.282;2023-07-28T02:33:00;2.25;;;1.80;;
27666;SDS011;15074;50.940;5.282;2023-07-28T02:35:26;2.75;;;2.08;;
27666;SDS011;15074;50.940;5.282;2023-07-28T02:37:52;3.25;;;1.52;;
27666;SDS011;15074;50.940;5.282;2023-07-28T02:40:17;2.40;;;1.77;;
27666;SDS011;15074;50.940;5.282;2023-07-28T02:42:43;2.85;;;1.50;;
27666;SDS011;15074;50.940;5.282;2023-07-28T02:45:08;1.98;;;1.50;;
27666;SDS011;15074;50.940;5.282;2023-07-28T02:47:35;2.63;;;1.67;;
27666;SDS011;15074;50.940;5.282;2023-07-28T02:50:00;3.72;;;2.13;;
27666;SDS011;15074;50.940;5.282;2023-07-28T02:52:26;2.15;;;1.80;;
27666;SDS011;15074;50.940;5.282;2023-07-28T02:54:52;2.47;;;1.90;;
27666;SDS011;15074;50.940;5.282;2023-07-28T02:57:18;2.15;;;1.90;;
27666;SDS011;15074;50.940;5.282;2023-07-28T02:59:43;4.40;;;2.45;;
27666;SDS011;15074;50.940;5.282;2023-07-28T03:02:09;4.07;;;2.45;;
27666;SDS011;15074;50.940;5.282;2023-07-28T03:04:34;2.75;;;2.00;;
27666;SDS011;15074;50.940;5.282;2023-07-28T03:07:00;3.22;;;2.30;;
27666;SDS011;15074;50.940;5.282;2023-07-28T03:09:26;3.00;;;2.38;;
27666;SDS011;15074;50.940;5.282;2023-07-28T03:11:51;4.85;;;2.75;;
27666;SDS011;15074;50.940;5.282;2023-07-28T03:14:17;2.63;;;2.38;;
27666;SDS011;15074;50.940;5.282;2023-07-28T03:16:43;3.03;;;2.03;;
27666;SDS011;15074;50.940;5.282;2023-07-28T03:19:08;3.35;;;3.05;;
27666;SDS011;15074;50.940;5.282;2023-07-28T03:21:34;4.63;;;2.97;;
27666;SDS011;15074;50.940;5.282;2023-07-28T03:24:00;4.85;;;2.95;;
27666;SDS011;15074;50.940;5.282;2023-07-28T03:26:25;4.13;;;3.38;;
27666;SDS011;15074;50.940;5.282;2023-07-28T03:28:51;6.68;;;3.20;;
27666;SDS011;15074;50.940;5.282;2023-07-28T03:31:17;4.30;;;3.03;;
27666;SDS011;15074;50.940;5.282;2023-07-28T03:33:42;6.07;;;3.75;;
27666;SDS011;15074;50.940;5.282;2023-07-28T03:36:08;5.85;;;3.75;;
27666;SDS011;15074;50.940;5.282;2023-07-28T03:38:33;5.93;;;3.83;;
27666;SDS011;15074;50.940;5.282;2023-07-28T03:40:59;6.22;;;4.15;;
27666;SDS011;15074;50.940;5.282;2023-07-28T03:43:25;4.30;;;3.90;;
27666;SDS011;15074;50.940;5.282;2023-07-28T03:45:50;10.13;;;4.50;;
27666;SDS011;15074;50.940;5.282;2023-07-28T03:48:16;5.43;;;4.20;;
27666;SDS011;15074;50.940;5.282;2023-07-28T03:50:42;5.57;;;4.32;;
27666;SDS011;15074;50.940;5.282;2023-07-28T03:53:08;5.22;;;3.97;;
27666;SDS011;15074;50.940;5.282;2023-07-28T03:55:34;6.55;;;5.22;;
27666;SDS011;15074;50.940;5.282;2023-07-28T03:58:00;6.95;;;5.50;;
27666;SDS011;15074;50.940;5.282;2023-07-28T04:00:25;8.40;;;5.03;;
27666;SDS011;15074;50.940;5.282;2023-07-28T04:02:51;5.88;;;5.10;;
27666;SDS011;15074;50.940;5.282;2023-07-28T04:05:17;8.10;;;5.35;;
27666;SDS011;15074;50.940;5.282;2023-07-28T04:07:42;5.93;;;5.38;;
27666;SDS011;15074;50.940;5.282;2023-07-28T04:10:08;6.32;;;4.70;;
27666;SDS011;15074;50.940;5.282;2023-07-28T04:12:34;5.63;;;5.00;;
27666;SDS011;15074;50.940;5.282;2023-07-28T04:14:59;6.53;;;4.80;;
27666;SDS011;15074;50.940;5.282;2023-07-28T04:17:25;7.82;;;5.30;;
27666;SDS011;15074;50.940;5.282;2023-07-28T04:19:51;5.60;;;4.65;;
27666;SDS011;15074;50.940;5.282;2023-07-28T04:22:16;5.32;;;4.50;;
27666;SDS011;15074;50.940;5.282;2023-07-28T04:24:46;5.22;;;4.32;;
27666;SDS011;15074;50.940;5.282;2023-07-28T04:27:13;5.97;;;5.18;;
27666;SDS011;15074;50.940;5.282;2023-07-28T04:29:38;6.40;;;5.13;;
27666;SDS011;15074;50.940;5.282;2023-07-28T04:32:04;6.13;;;5.10;;
27666;SDS011;15074;50.940;5.282;2023-07-28T04:34:32;9.52;;;5.80;;
27666;SDS011;15074;50.940;5.282;2023-07-28T04:39:24;5.25;;;4.72;;
27666;SDS011;15074;50.940;5.282;2023-07-28T04:41:49;9.68;;;5.65;;
27666;SDS011;15074;50.940;5.282;2023-07-28T04:44:15;6.07;;;4.35;;
27666;SDS011;15074;50.940;5.282;2023-07-28T04:46:42;5.45;;;4.85;;
27666;SDS011;15074;50.940;5.282;2023-07-28T04:49:07;7.63;;;4.55;;
27666;SDS011;15074;50.940;5.282;2023-07-28T04:51:33;4.60;;;4.20;;
27666;SDS011;15074;50.940;5.282;2023-07-28T04:53:58;4.40;;;3.42;;
27666;SDS011;15074;50.940;5.282;2023-07-28T04:56:24;4.18;;;3.78;;
27666;SDS011;15074;50.940;5.282;2023-07-28T04:58:50;4.90;;;3.83;;
27666;SDS011;15074;50.940;5.282;2023-07-28T05:01:15;4.40;;;3.95;;
27666;SDS011;15074;50.940;5.282;2023-07-28T05:03:41;3.80;;;3.40;;
27666;SDS011;15074;50.940;5.282;2023-07-28T05:06:06;6.10;;;3.70;;
27666;SDS011;15074;50.940;5.282;2023-07-28T05:08:32;3.97;;;2.92;;
27666;SDS011;15074;50.940;5.282;2023-07-28T05:10:58;5.50;;;3.28;;
27666;SDS011;15074;50.940;5.282;2023-07-28T05:13:23;4.18;;;3.30;;
27666;SDS011;15074;50.940;5.282;2023-07-28T05:15:49;5.65;;;3.35;;
27666;SDS011;15074;50.940;5.282;2023-07-28T05:18:15;3.78;;;3.33;;
27666;SDS011;15074;50.940;5.282;2023-07-28T05:20:40;5.35;;;3.08;;
27666;SDS011;15074;50.940;5.282;2023-07-28T05:23:06;4.80;;;3.00;;
27666;SDS011;15074;50.940;5.282;2023-07-28T05:25:31;7.32;;;2.90;;
27666;SDS011;15074;50.940;5.282;2023-07-28T05:27:57;3.72;;;2.95;;
27666;SDS011;15074;50.940;5.282;2023-07-28T05:30:23;5.68;;;2.60;;
27666;SDS011;15074;50.940;5.282;2023-07-28T05:32:48;3.78;;;2.78;;
27666;SDS011;15074;50.940;5.282;2023-07-28T05:35:14;4.65;;;2.58;;
27666;SDS011;15074;50.940;5.282;2023-07-28T05:37:40;6.47;;;2.90;;
27666;SDS011;15074;50.940;5.282;2023-07-28T05:40:06;3.70;;;2.65;;
27666;SDS011;15074;50.940;5.282;2023-07-28T05:42:32;5.45;;;2.83;;
27666;SDS011;15074;50.940;5.282;2023-07-28T05:44:58;3.67;;;2.80;;
27666;SDS011;15074;50.940;5.282;2023-07-28T05:47:24;3.55;;;2.58;;
27666;SDS011;15074;50.940;5.282;2023-07-28T05:49:51;4.53;;;2.45;;
27666;SDS011;15074;50.940;5.282;2023-07-28T05:52:18;2.60;;;2.40;;
27666;SDS011;15074;50.940;5.282;2023-07-28T05:54:44;4.15;;;2.42;;
27666;SDS011;15074;50.940;5.282;2023-07-28T05:57:10;5.05;;;2.35;;
27666;SDS011;15074;50.940;5.282;2023-07-28T05:59:36;3.95;;;2.50;;
27666;SDS011;15074;50.940;5.282;2023-07-28T06:02:02;3.60;;;2.25;;
27666;SDS011;15074;50.940;5.282;2023-07-28T06:04:27;2.50;;;2.28;;
27666;SDS011;15074;50.940;5.282;2023-07-28T06:06:53;2.30;;;2.00;;
27666;SDS011;15074;50.940;5.282;2023-07-28T06:09:19;2.90;;;1.88;;
27666;SDS011;15074;50.940;5.282;2023-07-28T06:11:44;3.60;;;2.08;;
27666;SDS011;15074;50.940;5.282;2023-07-28T06:14:10;2.92;;;1.90;;
27666;SDS011;15074;50.940;5.282;2023-07-28T06:16:36;2.90;;;2.10;;
27666;SDS011;15074;50.940;5.282;2023-07-28T06:19:01;2.72;;;1.73;;
27666;SDS011;15074;50.940;5.282;2023-07-28T06:21:29;2.72;;;1.60;;
27666;SDS011;15074;50.940;5.282;2023-07-28T06:23:54;2.47;;;1.65;;
27666;SDS011;15074;50.940;5.282;2023-07-28T06:26:20;3.25;;;2.00;;
27666;SDS011;15074;50.940;5.282;2023-07-28T06:28:46;2.63;;;1.67;;
27666;SDS011;15074;50.940;5.282;2023-07-28T06:31:11;2.28;;;1.67;;
27666;SDS011;15074;50.940;5.282;2023-07-28T06:33:37;4.00;;;1.80;;
27666;SDS011;15074;50.940;5.282;2023-07-28T06:36:03;2.65;;;1.60;;
27666;SDS011;15074;50.940;5.282;2023-07-28T06:38:29;1.80;;;1.50;;
27666;SDS011;15074;50.940;5.282;2023-07-28T06:40:55;2.90;;;1.50;;
27666;SDS011;15074;50.940;5.282;2023-07-28T06:43:21;2.08;;;1.50;;
27666;SDS011;15074;50.940;5.282;2023-07-28T06:45:46;5.00;;;2.05;;
27666;SDS011;15074;50.940;5.282;2023-07-28T06:48:15;1.65;;;1.50;;
27666;SDS011;15074;50.940;5.282;2023-07-28T06:50:41;1.95;;;1.40;;
27666;SDS011;15074;50.940;5.282;2023-07-28T06:53:07;3.42;;;1.38;;
27666;SDS011;15074;50.940;5.282;2023-07-28T06:55:32;1.35;;;1.25;;
27666;SDS011;15074;50.940;5.282;2023-07-28T06:57:58;3.30;;;1.20;;
27666;SDS011;15074;50.940;5.282;2023-07-28T07:00:23;3.60;;;1.15;;
27666;SDS011;15074;50.940;5.282;2023-07-28T07:02:49;1.58;;;1.00;;
27666;SDS011;15074;50.940;5.282;2023-07-28T07:05:15;1.80;;;0.90;;
27666;SDS011;15074;50.940;5.282;2023-07-28T07:07:41;0.90;;;0.80;;
27666;SDS011;15074;50.940;5.282;2023-07-28T07:10:06;2.67;;;1.00;;
27666;SDS011;15074;50.940;5.282;2023-07-28T07:12:33;2.70;;;0.82;;
27666;SDS011;15074;50.940;5.282;2023-07-28T07:14:59;1.20;;;0.70;;
27666;SDS011;15074;50.940;5.282;2023-07-28T07:17:24;0.75;;;0.60;;
27666;SDS011;15074;50.940;5.282;2023-07-28T07:19:50;0.70;;;0.52;;
27666;SDS011;15074;50.940;5.282;2023-07-28T07:22:15;1.70;;;0.50;;
27666;SDS011;15074;50.940;5.282;2023-07-28T07:24:41;0.50;;;0.50;;
27666;SDS011;15074;50.940;5.282;2023-07-28T07:27:07;3.03;;;0.50;;
27666;SDS011;15074;50.940;5.282;2023-07-28T07:29:35;0.98;;;0.55;;
27666;SDS011;15074;50.940;5.282;2023-07-28T07:32:05;1.05;;;0.85;;
27666;SDS011;15074;50.940;5.282;2023-07-28T07:34:31;1.55;;;0.80;;
27666;SDS011;15074;50.940;5.282;2023-07-28T07:36:58;0.77;;;0.63;;
27666;SDS011;15074;50.940;5.282;2023-07-28T07:39:23;1.48;;;0.77;;
27666;SDS011;15074;50.940;5.282;2023-07-28T07:41:49;1.67;;;0.90;;
27666;SDS011;15074;50.940;5.282;2023-07-28T07:44:15;0.63;;;0.60;;
27666;SDS011;15074;50.940;5.282;2023-07-28T07:46:40;1.23;;;0.85;;
27666;SDS011;15074;50.940;5.282;2023-07-28T07:49:06;1.02;;;0.73;;
27666;SDS011;15074;50.940;5.282;2023-07-28T07:51:32;1.98;;;0.60;;
27666;SDS011;15074;50.940;5.282;2023-07-28T07:53:59;0.90;;;0.65;;
27666;SDS011;15074;50.940;5.282;2023-07-28T07:56:26;1.00;;;0.70;;
27666;SDS011;15074;50.940;5.282;2023-07-28T07:58:52;1.40;;;0.60;;
27666;SDS011;15074;50.940;5.282;2023-07-28T08:01:18;3.58;;;0.50;;
27666;SDS011;15074;50.940;5.282;2023-07-28T08:03:43;2.55;;;0.52;;
27666;SDS011;15074;50.940;5.282;2023-07-28T08:06:09;1.80;;;0.70;;
27666;SDS011;15074;50.940;5.282;2023-07-28T08:08:36;0.98;;;0.77;;
27666;SDS011;15074;50.940;5.282;2023-07-28T08:11:02;0.88;;;0.65;;
27666;SDS011;15074;50.940;5.282;2023-07-28T08:13:28;1.17;;;0.73;;
27666;SDS011;15074;50.940;5.282;2023-07-28T08:15:53;0.57;;;0.57;;
27666;SDS011;15074;50.940;5.282;2023-07-28T08:18:19;1.05;;;0.60;;
27666;SDS011;15074;50.940;5.282;2023-07-28T08:20:45;1.60;;;0.60;;
27666;SDS011;15074;50.940;5.282;2023-07-28T08:23:10;1.38;;;0.80;;
27666;SDS011;15074;50.940;5.282;2023-07-28T08:25:36;0.47;;;0.47;;
27666;SDS011;15074;50.940;5.282;2023-07-28T08:28:02;2.25;;;0.60;;
27666;SDS011;15074;50.940;5.282;2023-07-28T08:30:28;1.67;;;0.60;;
27666;SDS011;15074;50.940;5.282;2023-07-28T08:32:54;0.90;;;0.57;;
27666;SDS011;15074;50.940;5.282;2023-07-28T08:35:19;1.10;;;0.60;;
27666;SDS011;15074;50.940;5.282;2023-07-28T08:37:45;0.93;;;0.60;;
27666;SDS011;15074;50.940;5.282;2023-07-28T08:40:11;0.80;;;0.60;;
27666;SDS011;15074;50.940;5.282;2023-07-28T08:42:38;0.55;;;0.55;;
27666;SDS011;15074;50.940;5.282;2023-07-28T08:45:05;0.57;;;0.50;;
27666;SDS011;15074;50.940;5.282;2023-07-28T08:49:59;0.80;;;0.60;;
27666;SDS011;15074;50.940;5.282;2023-07-28T08:52:25;0.68;;;0.50;;
27666;SDS011;15074;50.940;5.282;2023-07-28T08:54:50;1.15;;;0.60;;
27666;SDS011;15074;50.940;5.282;2023-07-28T08:57:17;1.50;;;0.63;;
27666;SDS011;15074;50.940;5.282;2023-07-28T08:59:44;1.40;;;0.60;;
27666;SDS011;15074;50.940;5.282;2023-07-28T09:02:14;0.80;;;0.70;;
27666;SDS011;15074;50.940;5.282;2023-07-28T09:07:16;0.30;;;0.30;;
27666;SDS011;15074;50.940;5.282;2023-07-28T09:09:42;0.50;;;0.20;;
27666;SDS011;15074;50.940;5.282;2023-07-28T09:12:08;1.02;;;0.28;;
27666;SDS011;15074;50.940;5.282;2023-07-28T09:14:37;0.40;;;0.30;;
27666;SDS011;15074;50.940;5.282;2023-07-28T09:17:09;0.40;;;0.35;;
27666;SDS011;15074;50.940;5.282;2023-07-28T09:19:55;0.68;;;0.50;;
27666;SDS011;15074;50.940;5.282;2023-07-28T09:22:21;1.10;;;0.40;;
27666;SDS011;15074;50.940;5.282;2023-07-28T09:24:48;1.02;;;0.40;;
27666;SDS011;15074;50.940;5.282;2023-07-28T09:27:24;0.73;;;0.47;;
27666;SDS011;15074;50.940;5.282;2023-07-28T09:29:51;0.52;;;0.50;;
27666;SDS011;15074;50.940;5.282;2023-07-28T09:32:26;0.75;;;0.40;;
27666;SDS011;15074;50.940;5.282;2023-07-28T09:35:07;0.52;;;0.50;;
27666;SDS011;15074;50.940;5.282;2023-07-28T09:37:35;0.57;;;0.52;;
27666;SDS011;15074;50.940;5.282;2023-07-28T09:40:04;0.85;;;0.40;;
27666;SDS011;15074;50.940;5.282;2023-07-28T09:42:31;0.50;;;0.50;;
27666;SDS011;15074;50.940;5.282;2023-07-28T09:44:58;1.00;;;0.70;;
27666;SDS011;15074;50.940;5.282;2023-07-28T09:47:24;0.85;;;0.60;;
27666;SDS011;15074;50.940;5.282;2023-07-28T09:49:49;0.77;;;0.70;;
27666;SDS011;15074;50.940;5.282;2023-07-28T09:52:18;0.90;;;0.60;;
27666;SDS011;15074;50.940;5.282;2023-07-28T09:54:46;0.82;;;0.60;;
27666;SDS011;15074;50.940;5.282;2023-07-28T09:57:14;1.48;;;0.68;;
27666;SDS011;15074;50.940;5.282;2023-07-28T09:59:47;0.93;;;0.70;;
27666;SDS011;15074;50.940;5.282;2023-07-28T10:02:14;1.15;;;0.80;;
27666;SDS011;15074;50.940;5.282;2023-07-28T10:04:41;0.70;;;0.70;;
27666;SDS011;15074;50.940;5.282;2023-07-28T10:07:07;3.03;;;0.90;;
27666;SDS011;15074;50.940;5.282;2023-07-28T10:09:34;3.65;;;0.88;;
27666;SDS011;15074;50.940;5.282;2023-07-28T10:12:00;1.00;;;0.90;;
27666;SDS011;15074;50.940;5.282;2023-07-28T10:17:03;0.80;;;0.80;;
27666;SDS011;15074;50.940;5.282;2023-07-28T10:19:33;1.50;;;0.75;;
27666;SDS011;15074;50.940;5.282;2023-07-28T10:22:06;2.05;;;0.60;;
27666;SDS011;15074;50.940;5.282;2023-07-28T10:24:52;0.52;;;0.50;;
27666;SDS011;15074;50.940;5.282;2023-07-28T10:30:16;0.40;;;0.40;;
27666;SDS011;15074;50.940;5.282;2023-07-28T10:32:44;0.57;;;0.40;;
27666;SDS011;15074;50.940;5.282;2023-07-28T10:37:42;0.50;;;0.40;;
27666;SDS011;15074;50.940;5.282;2023-07-28T10:40:28;1.40;;;0.30;;
27666;SDS011;15074;50.940;5.282;2023-07-28T10:42:58;0.60;;;0.50;;
27666;SDS011;15074;50.940;5.282;2023-07-28T10:45:25;0.47;;;0.47;;
27666;SDS011;15074;50.940;5.282;2023-07-28T10:47:53;0.57;;;0.45;;
27666;SDS011;15074;50.940;5.282;2023-07-28T10:50:25;0.60;;;0.40;;
27666;SDS011;15074;50.940;5.282;2023-07-28T10:52:52;1.08;;;0.60;;
27666;SDS011;15074;50.940;5.282;2023-07-28T10:55:19;1.17;;;0.45;;
27666;SDS011;15074;50.940;5.282;2023-07-28T10:57:49;0.50;;;0.50;;
27666;SDS011;15074;50.940;5.282;2023-07-28T11:00:17;0.40;;;0.40;;
27666;SDS011;15074;50.940;5.282;2023-07-28T11:05:11;0.80;;;0.63;;
27666;SDS011;15074;50.940;5.282;2023-07-28T11:07:47;0.90;;;0.80;;
27666;SDS011;15074;50.940;5.282;2023-07-28T11:10:13;2.53;;;0.80;;
27666;SDS011;15074;50.940;5.282;2023-07-28T11:12:43;1.00;;;0.90;;
27666;SDS011;15074;50.940;5.282;2023-07-28T11:15:09;0.90;;;0.90;;
27666;SDS011;15074;50.940;5.282;2023-07-28T11:17:38;1.58;;;1.08;;
27666;SDS011;15074;50.940;5.282;2023-07-28T11:20:17;1.77;;;1.10;;
27666;SDS011;15074;50.940;5.282;2023-07-28T11:25:21;1.10;;;1.00;;
27666;SDS011;15074;50.940;5.282;2023-07-28T11:27:48;1.20;;;0.80;;
27666;SDS011;15074;50.940;5.282;2023-07-28T11:30:14;1.10;;;0.90;;
27666;SDS011;15074;50.940;5.282;2023-07-28T11:32:42;1.15;;;1.05;;
27666;SDS011;15074;50.940;5.282;2023-07-28T11:35:10;0.90;;;0.75;;
27666;SDS011;15074;50.940;5.282;2023-07-28T11:37:38;1.08;;;0.98;;
27666;SDS011;15074;50.940;5.282;2023-07-28T11:40:07;1.73;;;0.90;;
27666;SDS011;15074;50.940;5.282;2023-07-28T11:42:45;0.77;;;0.70;;
27666;SDS011;15074;50.940;5.282;2023-07-28T11:45:16;0.65;;;0.47;;
27666;SDS011;15074;50.940;5.282;2023-07-28T11:48:00;0.50;;;0.50;;
27666;SDS011;15074;50.940;5.282;2023-07-28T11:50:34;0.50;;;0.50;;
27666;SDS011;15074;50.940;5.282;2023-07-28T11:53:04;1.88;;;0.68;;
27666;SDS011;15074;50.940;5.282;2023-07-28T11:55:34;0.95;;;0.55;;
27666;SDS011;15074;50.940;5.282;2023-07-28T11:58:01;0.30;;;0.30;;
27666;SDS011;15074;50.940;5.282;2023-07-28T12:00:33;0.68;;;0.38;;
27666;SDS011;15074;50.940;5.282;2023-07-28T12:03:10;1.48;;;0.50;;
27666;SDS011;15074;50.940;5.282;2023-07-28T12:05:40;0.68;;;0.40;;
27666;SDS011;15074;50.940;5.282;2023-07-28T12:08:38;0.50;;;0.40;;
27666;SDS011;15074;50.940;5.282;2023-07-28T12:11:04;0.82;;;0.32;;
27666;SDS011;15074;50.940;5.282;2023-07-28T12:13:31;0.40;;;0.30;;
27666;SDS011;15074;50.940;5.282;2023-07-28T12:15:57;2.05;;;0.30;;
27666;SDS011;15074;50.940;5.282;2023-07-28T12:18:23;0.63;;;0.28;;
27666;SDS011;15074;50.940;5.282;2023-07-28T12:20:54;0.40;;;0.30;;
27666;SDS011;15074;50.940;5.282;2023-07-28T12:23:21;0.45;;;0.30;;
27666;SDS011;15074;50.940;5.282;2023-07-28T12:25:48;0.30;;;0.30;;
27666;SDS011;15074;50.940;5.282;2023-07-28T12:28:15;0.70;;;0.43;;
27666;SDS011;15074;50.940;5.282;2023-07-28T12:30:41;0.73;;;0.35;;
27666;SDS011;15074;50.940;5.282;2023-07-28T12:33:08;1.30;;;0.50;;
27666;SDS011;15074;50.940;5.282;2023-07-28T12:35:34;0.30;;;0.30;;
27666;SDS011;15074;50.940;5.282;2023-07-28T12:38:00;0.90;;;0.40;;
27666;SDS011;15074;50.940;5.282;2023-07-28T12:40:29;1.10;;;0.40;;
27666;SDS011;15074;50.940;5.282;2023-07-28T12:42:56;0.20;;;0.20;;
27666;SDS011;15074;50.940;5.282;2023-07-28T12:45:22;0.57;;;0.40;;
27666;SDS011;15074;50.940;5.282;2023-07-28T12:47:50;0.40;;;0.35;;
27666;SDS011;15074;50.940;5.282;2023-07-28T12:50:20;0.38;;;0.38;;
27666;SDS011;15074;50.940;5.282;2023-07-28T12:52:47;0.73;;;0.38;;
27666;SDS011;15074;50.940;5.282;2023-07-28T12:55:13;1.08;;;0.50;;
27666;SDS011;15074;50.940;5.282;2023-07-28T12:57:39;0.40;;;0.40;;
27666;SDS011;15074;50.940;5.282;2023-07-28T13:00:05;0.65;;;0.45;;
27666;SDS011;15074;50.940;5.282;2023-07-28T13:02:38;0.90;;;0.30;;
27666;SDS011;15074;50.940;5.282;2023-07-28T13:05:04;0.50;;;0.50;;
27666;SDS011;15074;50.940;5.282;2023-07-28T13:07:30;1.67;;;0.60;;
27666;SDS011;15074;50.940;5.282;2023-07-28T13:09:56;1.40;;;0.50;;
27666;SDS011;15074;50.940;5.282;2023-07-28T13:12:22;0.60;;;0.60;;
27666;SDS011;15074;50.940;5.282;2023-07-28T13:14:47;0.50;;;0.50;;
27666;SDS011;15074;50.940;5.282;2023-07-28T13:17:13;1.60;;;0.60;;
27666;SDS011;15074;50.940;5.282;2023-07-28T13:19:39;0.70;;;0.60;;
27666;SDS011;15074;50.940;5.282;2023-07-28T13:22:05;0.57;;;0.57;;
27666;SDS011;15074;50.940;5.282;2023-07-28T13:24:31;0.60;;;0.60;;
27666;SDS011;15074;50.940;5.282;2023-07-28T13:26:57;1.50;;;0.63;;
27666;SDS011;15074;50.940;5.282;2023-07-28T13:29:23;0.68;;;0.68;;
27666;SDS011;15074;50.940;5.282;2023-07-28T13:31:49;0.63;;;0.63;;
27666;SDS011;15074;50.940;5.282;2023-07-28T13:34:14;1.10;;;0.60;;
27666;SDS011;15074;50.940;5.282;2023-07-28T13:36:40;1.08;;;0.70;;
27666;SDS011;15074;50.940;5.282;2023-07-28T13:39:08;0.65;;;0.63;;
27666;SDS011;15074;50.940;5.282;2023-07-28T13:41:34;0.60;;;0.60;;
27666;SDS011;15074;50.940;5.282;2023-07-28T13:43:59;0.70;;;0.50;;
27666;SDS011;15074;50.940;5.282;2023-07-28T13:46:25;0.60;;;0.50;;
27666;SDS011;15074;50.940;5.282;2023-07-28T13:48:51;0.57;;;0.50;;
27666;SDS011;15074;50.940;5.282;2023-07-28T13:51:17;1.10;;;0.60;;
27666;SDS011;15074;50.940;5.282;2023-07-28T13:53:42;0.82;;;0.40;;
27666;SDS011;15074;50.940;5.282;2023-07-28T13:56:08;1.02;;;0.40;;
27666;SDS011;15074;50.940;5.282;2023-07-28T13:58:34;0.35;;;0.30;;
27666;SDS011;15074;50.940;5.282;2023-07-28T14:00:59;0.60;;;0.32;;
27666;SDS011;15074;50.940;5.282;2023-07-28T14:03:25;7.25;;;0.57;;
27666;SDS011;15074;50.940;5.282;2023-07-28T14:05:50;1.98;;;0.40;;
27666;SDS011;15074;50.940;5.282;2023-07-28T14:08:16;0.93;;;0.50;;
27666;SDS011;15074;50.940;5.282;2023-07-28T14:10:45;0.50;;;0.40;;
27666;SDS011;15074;50.940;5.282;2023-07-28T14:13:11;0.40;;;0.38;;
27666;SDS011;15074;50.940;5.282;2023-07-28T14:15:37;0.32;;;0.30;;
27666;SDS011;15074;50.940;5.282;2023-07-28T14:18:03;0.43;;;0.40;;
27666;SDS011;15074;50.940;5.282;2023-07-28T14:20:29;1.30;;;0.40;;
27666;SDS011;15074;50.940;5.282;2023-07-28T14:22:55;0.60;;;0.40;;
27666;SDS011;15074;50.940;5.282;2023-07-28T14:25:20;1.10;;;0.50;;
27666;SDS011;15074;50.940;5.282;2023-07-28T14:27:46;1.00;;;0.55;;
27666;SDS011;15074;50.940;5.282;2023-07-28T14:30:11;1.48;;;0.60;;
27666;SDS011;15074;50.940;5.282;2023-07-28T14:32:38;1.08;;;0.65;;
27666;SDS011;15074;50.940;5.282;2023-07-28T14:35:04;0.75;;;0.60;;
27666;SDS011;15074;50.940;5.282;2023-07-28T14:37:29;0.95;;;0.80;;
27666;SDS011;15074;50.940;5.282;2023-07-28T14:39:55;0.60;;;0.50;;
27666;SDS011;15074;50.940;5.282;2023-07-28T14:42:21;0.70;;;0.65;;
27666;SDS011;15074;50.940;5.282;2023-07-28T14:44:46;1.92;;;0.77;;
27666;SDS011;15074;50.940;5.282;2023-07-28T14:47:12;0.70;;;0.70;;
27666;SDS011;15074;50.940;5.282;2023-07-28T14:49:38;1.98;;;0.70;;
27666;SDS011;15074;50.940;5.282;2023-07-28T14:52:03;1.05;;;0.70;;
27666;SDS011;15074;50.940;5.282;2023-07-28T14:54:29;2.60;;;0.60;;
27666;SDS011;15074;50.940;5.282;2023-07-28T14:56:55;3.03;;;0.70;;
27666;SDS011;15074;50.940;5.282;2023-07-28T14:59:20;1.17;;;0.60;;
27666;SDS011;15074;50.940;5.282;2023-07-28T15:01:46;0.70;;;0.60;;
27666;SDS011;15074;50.940;5.282;2023-07-28T15:04:12;0.93;;;0.60;;
27666;SDS011;15074;50.940;5.282;2023-07-28T15:06:39;2.25;;;0.70;;
27666;SDS011;15074;50.940;5.282;2023-07-28T15:09:04;0.82;;;0.55;;